createdAt,value
2023-02-04T00:01:41.623Z,2.00
2023-02-04T00:03:58.891Z,1.30
2023-02-04T00:06:15.979Z,2.63
2023-02-04T00:08:32.912Z,2.85
2023-02-04T00:10:53.320Z,3.30
2023-02-04T00:13:10.947Z,2.33
2023-02-04T00:15:27.889Z,4.32
2023-02-04T00:17:44.855Z,4.15
2023-02-04T00:20:02.879Z,2.95
2023-02-04T00:22:20.229Z,2.65
2023-02-04T00:24:38.497Z,5.85
2023-02-04T00:26:55.463Z,2.88
2023-02-04T00:29:13.534Z,3.75
2023-02-04T00:31:30.932Z,2.60
2023-02-04T00:33:48.359Z,2.13
2023-02-04T00:36:08.150Z,2.25
2023-02-04T00:38:27.575Z,7.20
2023-02-04T00:40:44.490Z,5.35
2023-02-04T00:43:01.422Z,4.55
2023-02-04T00:45:18.409Z,2.45
2023-02-04T00:47:36.456Z,7.22
2023-02-04T00:49:53.537Z,7.53
2023-02-04T00:52:13.994Z,5.53
2023-02-04T00:54:31.029Z,4.90
2023-02-04T00:56:47.958Z,7.63
2023-02-04T00:59:05.434Z,6.88
2023-02-04T01:01:22.750Z,4.97
2023-02-04T01:03:40.069Z,7.07
2023-02-04T01:05:57.315Z,6.13
2023-02-04T01:08:14.566Z,7.68
2023-02-04T01:10:32.245Z,6.07
2023-02-04T01:12:50.958Z,6.95
2023-02-04T01:15:08.076Z,5.22
2023-02-04T01:17:26.089Z,8.27
2023-02-04T01:19:43.241Z,3.58
2023-02-04T01:22:00.341Z,7.18
2023-02-04T01:24:17.416Z,5.78
2023-02-04T01:26:34.420Z,7.57
2023-02-04T01:28:51.703Z,8.60
2023-02-04T01:31:08.753Z,5.32
2023-02-04T01:33:26.572Z,6.38
2023-02-04T01:35:43.876Z,4.40
2023-02-04T01:38:01.289Z,6.20
2023-02-04T01:40:18.360Z,4.25
2023-02-04T01:42:35.379Z,4.07
2023-02-04T01:44:52.270Z,4.20
2023-02-04T01:47:10.036Z,5.22
2023-02-04T01:49:27.095Z,6.40
2023-02-04T01:51:44.297Z,4.70
2023-02-04T01:54:02.407Z,5.18
2023-02-04T01:56:19.900Z,4.47
2023-02-04T01:58:37.534Z,6.60
2023-02-04T02:00:54.974Z,3.85
2023-02-04T02:03:12.423Z,5.90
2023-02-04T02:05:29.516Z,5.95
2023-02-04T02:07:46.755Z,5.93
2023-02-04T02:10:03.894Z,3.75
2023-02-04T02:12:21.147Z,6.85
2023-02-04T02:14:38.490Z,7.47
2023-02-04T02:16:55.871Z,7.10
2023-02-04T02:19:13.216Z,4.90
2023-02-04T02:21:31.593Z,5.07
2023-02-04T02:23:48.566Z,5.72
2023-02-04T02:26:08.257Z,6.55
2023-02-04T02:28:25.550Z,4.05
2023-02-04T02:30:42.949Z,5.13
2023-02-04T02:33:00.121Z,7.80
2023-02-04T02:35:17.402Z,8.75
2023-02-04T02:37:35.431Z,6.00
2023-02-04T02:39:52.509Z,5.63
2023-02-04T02:42:09.672Z,6.93
2023-02-04T02:44:27.707Z,4.47
2023-02-04T02:46:44.726Z,4.75
2023-02-04T02:49:02.074Z,3.60
2023-02-04T02:51:19.380Z,7.10
2023-02-04T02:53:36.377Z,4.95
2023-02-04T02:55:53.677Z,6.15
2023-02-04T02:58:10.746Z,5.82
2023-02-04T03:00:27.930Z,9.35
2023-02-04T03:02:46.287Z,6.05
2023-02-04T03:05:03.338Z,6.95
2023-02-04T03:07:20.590Z,9.30
2023-02-04T03:09:37.712Z,7.03
2023-02-04T03:11:55.725Z,3.33
2023-02-04T03:14:13.044Z,5.88
2023-02-04T03:16:30.373Z,6.22
2023-02-04T03:18:47.709Z,5.55
2023-02-04T03:21:04.779Z,4.38
2023-02-04T03:23:21.840Z,7.03
2023-02-04T03:25:39.225Z,5.10
2023-02-04T03:27:56.534Z,7.10
2023-02-04T03:30:13.959Z,6.28
2023-02-04T03:32:30.989Z,3.33
2023-02-04T03:34:49.323Z,4.43
2023-02-04T03:37:06.455Z,4.50
2023-02-04T03:39:23.733Z,3.95
2023-02-04T03:41:41.778Z,4.15
2023-02-04T03:43:58.712Z,6.40
2023-02-04T03:46:16.041Z,5.13
2023-02-04T03:48:33.479Z,3.60
2023-02-04T03:50:50.766Z,5.45
2023-02-04T03:53:08.062Z,4.10
2023-02-04T03:55:25.434Z,4.63
2023-02-04T03:57:42.536Z,8.30
2023-02-04T03:59:59.810Z,3.50
2023-02-04T04:02:17.046Z,4.53
2023-02-04T04:04:35.367Z,5.40
2023-02-04T04:06:52.709Z,2.92
2023-02-04T04:09:10.711Z,4.57
2023-02-04T04:11:27.753Z,4.82
2023-02-04T04:13:45.088Z,6.40
2023-02-04T04:16:02.215Z,4.47
2023-02-04T04:18:19.606Z,5.15
2023-02-04T04:20:36.643Z,4.60
2023-02-04T04:22:54.538Z,6.43
2023-02-04T04:25:11.838Z,5.47
2023-02-04T04:27:29.089Z,7.40
2023-02-04T04:29:47.125Z,4.03
2023-02-04T04:32:04.069Z,4.00
2023-02-04T04:34:21.428Z,5.30
2023-02-04T04:36:38.500Z,3.97
2023-02-04T04:38:55.491Z,4.18
2023-02-04T04:41:12.820Z,3.92
2023-02-04T04:43:30.829Z,9.88
2023-02-04T04:45:48.138Z,8.95
2023-02-04T04:48:05.136Z,8.05
2023-02-04T04:50:22.057Z,9.25
2023-02-04T04:52:39.105Z,7.63
2023-02-04T04:54:56.108Z,9.20
2023-02-04T04:57:14.401Z,9.45
2023-02-04T04:59:31.675Z,8.80
2023-02-04T05:01:48.974Z,10.48
2023-02-04T05:04:06.047Z,8.52
2023-02-04T05:06:23.137Z,9.32
2023-02-04T05:08:40.384Z,7.18
2023-02-04T05:10:57.763Z,11.93
2023-02-04T05:13:15.713Z,8.55
2023-02-04T05:15:32.659Z,5.95
2023-02-04T05:17:49.754Z,7.82
2023-02-04T05:20:06.991Z,6.93
2023-02-04T05:22:24.228Z,8.45
2023-02-04T05:24:41.195Z,10.80
2023-02-04T05:26:58.536Z,9.05
2023-02-04T05:29:15.642Z,14.13
2023-02-04T05:31:33.849Z,16.25
2023-02-04T05:33:50.885Z,17.58
2023-02-04T05:36:07.926Z,17.40
2023-02-04T05:38:25.297Z,21.05
2023-02-04T05:40:43.296Z,18.73
2023-02-04T05:43:00.568Z,18.73
2023-02-04T05:45:18.044Z,20.20
2023-02-04T05:47:35.873Z,14.07
2023-02-04T05:49:55.438Z,22.98
2023-02-04T05:52:12.690Z,24.10
2023-02-04T05:54:29.977Z,19.42
2023-02-04T05:56:47.313Z,20.42
2023-02-04T05:59:05.218Z,16.90
2023-02-04T06:01:22.226Z,13.85
2023-02-04T06:03:39.317Z,16.10
2023-02-04T06:05:56.405Z,16.23
2023-02-04T06:08:13.397Z,17.20
2023-02-04T06:10:31.060Z,11.23
2023-02-04T06:12:48.610Z,13.65
2023-02-04T06:15:05.523Z,12.00
2023-02-04T06:17:22.497Z,10.15
2023-02-04T06:19:40.546Z,9.80
2023-02-04T06:21:57.888Z,10.73
2023-02-04T06:24:14.983Z,13.30
2023-02-04T06:26:32.035Z,8.38
2023-02-04T06:28:49.137Z,7.80
2023-02-04T06:31:06.318Z,11.43
2023-02-04T06:33:23.409Z,5.40
2023-02-04T06:35:40.350Z,12.05
2023-02-04T06:37:57.242Z,5.53
2023-02-04T06:40:14.293Z,7.30
2023-02-04T06:42:31.289Z,8.70
2023-02-04T06:44:48.578Z,6.55
2023-02-04T06:47:06.793Z,5.65
2023-02-04T06:49:23.867Z,10.35
2023-02-04T06:51:41.144Z,8.23
2023-02-04T06:53:59.545Z,7.85
2023-02-04T06:56:16.594Z,8.30
2023-02-04T06:58:34.299Z,9.95
2023-02-04T07:00:52.280Z,6.15
2023-02-04T07:03:09.307Z,6.40
2023-02-04T07:05:26.290Z,9.48
2023-02-04T07:07:43.614Z,8.45
2023-02-04T07:10:01.911Z,6.82
2023-02-04T07:12:19.152Z,9.10
2023-02-04T07:14:36.179Z,8.48
2023-02-04T07:16:53.133Z,11.25
2023-02-04T07:19:10.170Z,10.15
2023-02-04T07:21:27.197Z,9.13
2023-02-04T07:23:44.427Z,10.13
2023-02-04T07:26:01.729Z,7.70
2023-02-04T07:28:19.065Z,8.30
2023-02-04T07:30:36.285Z,8.43
2023-02-04T07:32:53.671Z,8.60
2023-02-04T07:35:10.719Z,7.60
2023-02-04T07:37:27.555Z,6.85
2023-02-04T07:39:44.780Z,4.82
2023-02-04T07:42:01.965Z,6.53
2023-02-04T07:44:19.451Z,6.97
2023-02-04T07:46:36.428Z,7.38
2023-02-04T07:48:53.520Z,10.20
2023-02-04T07:51:10.779Z,11.82
2023-02-04T07:53:28.791Z,9.23
2023-02-04T07:55:45.859Z,12.43
2023-02-04T07:58:03.133Z,167.88
2023-02-04T08:00:21.457Z,94.78
2023-02-04T08:02:38.517Z,37.78
2023-02-04T08:04:55.875Z,18.08
2023-02-04T08:07:13.104Z,20.20
2023-02-04T08:09:30.136Z,28.45
2023-02-04T08:11:47.289Z,22.23
2023-02-04T08:14:05.342Z,20.75
2023-02-04T08:16:22.721Z,15.27
2023-02-04T08:18:39.779Z,15.02
2023-02-04T08:20:56.842Z,13.38
2023-02-04T08:23:13.849Z,8.88
2023-02-04T08:25:31.089Z,8.32
2023-02-04T08:27:48.023Z,14.70
2023-02-04T08:30:05.374Z,14.00
2023-02-04T08:32:22.309Z,13.40
2023-02-04T08:34:40.355Z,13.82
2023-02-04T08:36:57.356Z,9.30
2023-02-04T08:39:14.427Z,19.50
2023-02-04T08:41:32.630Z,16.15
2023-02-04T08:43:49.662Z,12.73
2023-02-04T08:46:06.587Z,15.65
2023-02-04T08:48:23.685Z,16.98
2023-02-04T08:50:40.683Z,17.20
2023-02-04T08:52:57.921Z,17.42
2023-02-04T08:55:15.208Z,13.80
2023-02-04T08:57:32.255Z,14.85
2023-02-04T08:59:50.242Z,19.83
2023-02-04T09:02:07.222Z,19.00
2023-02-04T09:04:24.214Z,13.32
2023-02-04T09:06:41.294Z,15.80
2023-02-04T09:08:58.294Z,15.63
2023-02-04T09:11:15.286Z,17.40
2023-02-04T09:13:32.570Z,16.25
2023-02-04T09:15:49.827Z,23.10
2023-02-04T09:18:06.867Z,17.02
2023-02-04T09:20:24.149Z,19.75
2023-02-04T09:22:41.112Z,15.80
2023-02-04T09:24:58.334Z,22.08
2023-02-04T09:27:15.413Z,21.15
2023-02-04T09:29:32.466Z,16.23
2023-02-04T09:31:49.870Z,19.55
2023-02-04T09:34:08.207Z,21.83
2023-02-04T09:36:25.200Z,17.92
2023-02-04T09:38:42.200Z,15.32
2023-02-04T09:40:59.497Z,18.13
2023-02-04T09:43:16.568Z,18.35
2023-02-04T09:45:34.580Z,13.10
2023-02-04T09:47:51.819Z,24.40
2023-02-04T09:50:09.055Z,19.25
2023-02-04T09:52:26.350Z,43.58
2023-02-04T09:54:43.600Z,131.90
2023-02-04T09:57:01.849Z,47.30
2023-02-04T09:59:19.161Z,53.58
2023-02-04T10:01:36.497Z,105.70
2023-02-04T10:03:53.593Z,141.13
2023-02-04T10:06:10.694Z,158.85
2023-02-04T10:08:28.601Z,55.17
2023-02-04T10:10:45.886Z,67.95
2023-02-04T10:13:03.213Z,37.58
2023-02-04T10:15:20.259Z,96.70
2023-02-04T10:17:38.488Z,66.47
2023-02-04T10:19:55.405Z,65.30
2023-02-04T10:22:12.688Z,99.53
2023-02-04T10:24:29.757Z,40.25
2023-02-04T10:26:47.799Z,34.42
2023-02-04T10:29:04.844Z,39.70
2023-02-04T10:31:22.222Z,80.55
2023-02-04T10:33:40.328Z,53.15
2023-02-04T10:35:58.375Z,56.17
2023-02-04T10:38:15.301Z,52.05
2023-02-04T10:40:32.895Z,45.40
2023-02-04T10:42:49.988Z,37.00
2023-02-04T10:45:07.285Z,32.90
2023-02-04T10:47:25.325Z,80.82
2023-02-04T10:49:42.277Z,37.10
2023-02-04T10:52:00.276Z,45.70
2023-02-04T10:54:17.344Z,29.25
2023-02-04T10:56:34.418Z,31.65
2023-02-04T10:58:52.706Z,31.23
2023-02-04T11:01:09.814Z,25.90
2023-02-04T11:03:26.903Z,28.20
2023-02-04T11:05:43.914Z,23.85
2023-02-04T11:08:01.238Z,40.85
2023-02-04T11:10:19.566Z,32.42
2023-02-04T11:12:36.517Z,23.17
2023-02-04T11:14:53.849Z,28.90
2023-02-04T11:17:10.932Z,26.73
2023-02-04T11:19:28.193Z,23.90
2023-02-04T11:21:45.199Z,39.90
2023-02-04T11:24:02.290Z,35.45
2023-02-04T11:26:19.469Z,43.63
2023-02-04T11:28:36.471Z,24.55
2023-02-04T11:30:54.729Z,27.92
2023-02-04T11:33:12.092Z,33.40
2023-02-04T11:35:30.236Z,28.15
2023-02-04T11:37:47.352Z,25.40
2023-02-04T11:40:04.370Z,26.13
2023-02-04T11:42:21.714Z,36.53
2023-02-04T11:44:38.924Z,51.45
2023-02-04T11:46:55.973Z,55.38
2023-02-04T11:49:12.971Z,42.67
2023-02-04T11:51:30.970Z,50.58
2023-02-04T11:53:47.945Z,44.67
2023-02-04T11:56:05.852Z,36.00
2023-02-04T11:58:23.133Z,29.48
2023-02-04T12:00:41.242Z,23.15
2023-02-04T12:02:58.255Z,36.55
2023-02-04T12:05:15.287Z,27.15
2023-02-04T12:07:33.608Z,32.17
2023-02-04T12:09:50.940Z,32.42
2023-02-04T12:12:08.886Z,35.38
2023-02-04T12:14:26.968Z,20.95
2023-02-04T12:16:44.027Z,24.63
2023-02-04T12:19:01.374Z,23.80
2023-02-04T12:21:18.389Z,21.08
2023-02-04T12:23:35.383Z,19.42
2023-02-04T12:25:53.649Z,24.20
2023-02-04T12:28:10.653Z,21.08
2023-02-04T12:30:28.877Z,30.40
2023-02-04T12:32:46.160Z,24.77
2023-02-04T12:35:04.210Z,20.95
2023-02-04T12:37:21.198Z,22.15
2023-02-04T12:39:39.511Z,20.52
2023-02-04T12:41:56.496Z,25.77
2023-02-04T12:44:14.052Z,27.73
2023-02-04T12:46:31.115Z,18.65
2023-02-04T12:48:48.123Z,23.42
2023-02-04T12:51:06.375Z,21.85
2023-02-04T12:53:23.382Z,19.90
2023-02-04T12:55:40.442Z,21.25
2023-02-04T12:57:57.490Z,24.40
2023-02-04T13:00:14.516Z,16.33
2023-02-04T13:02:31.571Z,14.90
2023-02-04T13:04:48.591Z,23.95
2023-02-04T13:07:05.609Z,20.33
2023-02-04T13:09:22.662Z,20.83
2023-02-04T13:11:40.672Z,17.70
2023-02-04T13:13:57.762Z,20.67
2023-02-04T13:16:14.850Z,17.10
2023-02-04T13:18:32.095Z,18.27
2023-02-04T13:20:49.015Z,17.55
2023-02-04T13:23:06.386Z,16.42
2023-02-04T13:25:23.722Z,18.17
2023-02-04T13:27:40.781Z,24.77
2023-02-04T13:29:58.050Z,23.90
2023-02-04T13:32:15.045Z,15.18
2023-02-04T13:34:34.219Z,24.15
2023-02-04T13:36:51.278Z,17.33
2023-02-04T13:39:08.506Z,18.33
2023-02-04T13:41:25.772Z,14.38
2023-02-04T13:43:43.065Z,20.63
2023-02-04T13:46:00.400Z,18.90
2023-02-04T13:48:17.638Z,17.73
2023-02-04T13:50:37.478Z,17.25
2023-02-04T13:52:54.383Z,17.83
2023-02-04T13:55:11.373Z,16.20
2023-02-04T13:57:28.572Z,19.13
2023-02-04T13:59:45.637Z,19.15
2023-02-04T14:02:02.927Z,19.00
2023-02-04T14:04:21.241Z,19.27
2023-02-04T14:06:39.173Z,16.50
2023-02-04T14:08:56.245Z,18.08
2023-02-04T14:11:13.206Z,18.45
2023-02-04T14:13:31.457Z,13.43
2023-02-04T14:15:49.353Z,18.02
2023-02-04T14:18:07.094Z,19.30
2023-02-04T14:20:24.032Z,16.98
2023-02-04T14:22:40.915Z,19.60
2023-02-04T14:24:58.933Z,17.85
2023-02-04T14:27:16.252Z,13.27
2023-02-04T14:29:33.309Z,14.30
2023-02-04T14:31:51.383Z,16.45
2023-02-04T14:34:08.657Z,16.25
2023-02-04T14:36:25.919Z,20.83
2023-02-04T14:38:43.167Z,18.90
2023-02-04T14:41:01.275Z,19.42
2023-02-04T14:43:18.346Z,18.63
2023-02-04T14:45:35.274Z,20.48
2023-02-04T14:47:52.295Z,14.50
2023-02-04T14:50:10.358Z,16.70
2023-02-04T14:52:27.448Z,18.42
2023-02-04T14:54:44.643Z,14.77
2023-02-04T14:57:01.897Z,21.55
2023-02-04T14:59:19.105Z,21.00
2023-02-04T15:01:36.217Z,14.13
2023-02-04T15:03:53.343Z,15.07
2023-02-04T15:06:11.383Z,20.73
2023-02-04T15:08:28.514Z,17.50
2023-02-04T15:10:46.258Z,18.55
2023-02-04T15:13:03.829Z,16.65
2023-02-04T15:15:21.055Z,16.98
2023-02-04T15:17:38.027Z,12.85
2023-02-04T15:19:57.113Z,17.30
2023-02-04T15:22:14.413Z,17.25
2023-02-04T15:24:31.403Z,16.27
2023-02-04T15:26:48.383Z,11.30
2023-02-04T15:29:06.475Z,19.75
2023-02-04T15:31:23.639Z,21.88
2023-02-04T15:33:42.388Z,20.48
2023-02-04T15:35:59.456Z,13.48
2023-02-04T15:38:16.737Z,14.30
2023-02-04T15:40:34.448Z,15.35
2023-02-04T15:42:51.662Z,15.88
2023-02-04T15:45:08.742Z,16.40
2023-02-04T15:47:26.453Z,22.17
2023-02-04T15:49:43.456Z,16.45
2023-02-04T15:52:01.535Z,16.58
2023-02-04T15:54:18.625Z,20.52
2023-02-04T15:56:35.679Z,17.02
2023-02-04T15:58:53.041Z,16.67
2023-02-04T16:01:10.047Z,15.63
2023-02-04T16:03:27.211Z,17.67
2023-02-04T16:05:44.483Z,17.25
2023-02-04T16:08:01.679Z,14.07
2023-02-04T16:10:18.931Z,14.40
2023-02-04T16:12:37.038Z,16.10
2023-02-04T16:14:54.365Z,19.83
2023-02-04T16:17:11.503Z,15.80
2023-02-04T16:19:28.616Z,15.63
2023-02-04T16:21:45.742Z,16.55
2023-02-04T16:24:03.280Z,11.93
2023-02-04T16:26:20.711Z,12.75
2023-02-04T16:28:38.149Z,14.77
2023-02-04T16:30:55.529Z,15.32
2023-02-04T16:33:12.949Z,15.00
2023-02-04T16:35:30.319Z,18.02
2023-02-04T16:37:47.358Z,18.58
2023-02-04T16:40:04.472Z,16.48
2023-02-04T16:42:23.875Z,12.25
2023-02-04T16:44:40.961Z,15.70
2023-02-04T16:46:58.284Z,13.30
2023-02-04T16:49:15.584Z,18.90
2023-02-04T16:51:32.580Z,23.05
2023-02-04T16:53:49.710Z,19.83
2023-02-04T16:56:06.777Z,16.08
2023-02-04T16:58:23.886Z,17.85
2023-02-04T17:00:40.969Z,18.40
2023-02-04T17:02:58.370Z,15.55
2023-02-04T17:05:15.680Z,17.80
2023-02-04T17:07:32.756Z,18.25
2023-02-04T17:09:49.742Z,17.33
2023-02-04T17:12:06.684Z,17.73
2023-02-04T17:14:24.996Z,18.75
2023-02-04T17:16:42.375Z,17.35
2023-02-04T17:18:59.718Z,17.10
2023-02-04T17:21:18.066Z,12.98
2023-02-04T17:23:35.432Z,14.88
2023-02-04T17:25:52.819Z,16.02
2023-02-04T17:28:09.878Z,14.65
2023-02-04T17:30:28.412Z,19.58
2023-02-04T17:32:46.432Z,13.10
2023-02-04T17:35:03.428Z,19.38
2023-02-04T17:37:20.312Z,20.15
2023-02-04T17:39:38.648Z,20.17
2023-02-04T17:41:56.691Z,16.52
2023-02-04T17:44:14.028Z,17.30
2023-02-04T17:46:31.582Z,23.88
2023-02-04T17:48:48.868Z,18.08
2023-02-04T17:51:06.268Z,17.00
2023-02-04T17:53:24.566Z,14.27
2023-02-04T17:55:41.610Z,17.60
2023-02-04T17:57:58.591Z,16.40
2023-02-04T18:00:16.710Z,22.73
2023-02-04T18:02:34.189Z,20.33
2023-02-04T18:04:52.015Z,14.90
2023-02-04T18:07:09.356Z,20.92
2023-02-04T18:09:26.468Z,16.83
2023-02-04T18:11:44.501Z,18.90
2023-02-04T18:14:01.406Z,20.13
2023-02-04T18:16:18.487Z,19.80
2023-02-04T18:18:36.881Z,15.40
2023-02-04T18:20:53.949Z,17.20
2023-02-04T18:23:10.921Z,18.98
2023-02-04T18:25:28.306Z,18.80
2023-02-04T18:27:45.654Z,17.77
2023-02-04T18:30:02.761Z,26.90
2023-02-04T18:32:21.066Z,19.45
2023-02-04T18:34:38.166Z,24.83
2023-02-04T18:36:55.551Z,25.25
2023-02-04T18:39:12.753Z,34.72
2023-02-04T18:41:30.061Z,31.65
2023-02-04T18:43:47.377Z,29.92
2023-02-04T18:46:04.451Z,23.60
2023-02-04T18:48:21.797Z,18.92
2023-02-04T18:50:39.355Z,26.08
2023-02-04T18:52:57.712Z,21.02
2023-02-04T18:55:14.924Z,18.70
2023-02-04T18:57:31.946Z,14.15
2023-02-04T18:59:49.258Z,16.23
2023-02-04T19:02:07.583Z,19.20
2023-02-04T19:04:24.649Z,15.75
2023-02-04T19:06:42.701Z,17.00
2023-02-04T19:08:59.731Z,16.73
2023-02-04T19:11:17.118Z,15.93
2023-02-04T19:13:34.199Z,17.52
2023-02-04T19:15:51.252Z,12.88
2023-02-04T19:18:08.525Z,14.40
2023-02-04T19:20:25.874Z,15.52
2023-02-04T19:22:43.154Z,15.35
2023-02-04T19:25:00.124Z,19.08
2023-02-04T19:27:17.059Z,15.45
2023-02-04T19:29:34.200Z,15.27
2023-02-04T19:31:51.213Z,14.75
2023-02-04T19:34:08.447Z,15.65
2023-02-04T19:36:25.508Z,16.20
2023-02-04T19:38:42.767Z,19.23
2023-02-04T19:41:00.016Z,15.93
2023-02-04T19:43:17.394Z,17.85
2023-02-04T19:45:34.693Z,19.25
2023-02-04T19:47:51.934Z,14.57
2023-02-04T19:50:08.944Z,16.17
2023-02-04T19:52:26.235Z,20.92
2023-02-04T19:54:43.366Z,19.88
2023-02-04T19:57:01.472Z,13.10
2023-02-04T19:59:18.754Z,16.45
2023-02-04T20:01:36.058Z,18.25
2023-02-04T20:03:53.150Z,21.55
2023-02-04T20:06:10.509Z,14.73
2023-02-04T20:08:28.538Z,15.40
2023-02-04T20:10:45.664Z,14.88
2023-02-04T20:13:03.528Z,16.27
2023-02-04T20:15:20.738Z,17.48
2023-02-04T20:17:38.000Z,13.30
2023-02-04T20:19:54.939Z,19.50
2023-02-04T20:22:11.962Z,24.63
2023-02-04T20:24:29.296Z,27.23
2023-02-04T20:26:49.679Z,27.55
2023-02-04T20:29:06.994Z,23.48
2023-02-04T20:31:23.984Z,24.17
2023-02-04T20:33:41.109Z,23.50
2023-02-04T20:35:58.063Z,24.95
2023-02-04T20:38:15.128Z,23.92
2023-02-04T20:40:32.326Z,19.33
2023-02-04T20:42:49.847Z,17.00
2023-02-04T20:45:06.923Z,20.15
2023-02-04T20:47:24.327Z,19.85
2023-02-04T20:49:41.406Z,21.05
2023-02-04T20:51:58.528Z,17.00
2023-02-04T20:54:16.880Z,18.65
2023-02-04T20:56:34.193Z,21.73
2023-02-04T20:58:51.497Z,22.63
2023-02-04T21:01:08.918Z,23.20
2023-02-04T21:03:26.362Z,24.65
2023-02-04T21:05:43.193Z,22.98
2023-02-04T21:08:00.172Z,27.10
2023-02-04T21:10:17.267Z,25.90
2023-02-04T21:12:34.465Z,25.83
2023-02-04T21:14:51.594Z,28.27
2023-02-04T21:17:09.667Z,29.65
2023-02-04T21:19:26.797Z,25.77
2023-02-04T21:21:43.846Z,31.98
2023-02-04T21:24:01.149Z,30.35
2023-02-04T21:26:18.251Z,27.00
2023-02-04T21:28:35.392Z,29.60
2023-02-04T21:30:52.492Z,30.02
2023-02-04T21:33:09.522Z,30.27
2023-02-04T21:35:26.978Z,29.88
2023-02-04T21:37:44.422Z,27.08
2023-02-04T21:40:01.936Z,26.15
2023-02-04T21:42:19.098Z,21.95
2023-02-04T21:44:37.502Z,23.85
2023-02-04T21:46:54.618Z,23.50
2023-02-04T21:49:11.654Z,26.50
2023-02-04T21:51:28.896Z,29.35
2023-02-04T21:53:46.161Z,21.77
2023-02-04T21:56:03.329Z,31.02
2023-02-04T21:58:20.565Z,26.58
2023-02-04T22:00:37.632Z,25.60
2023-02-04T22:02:54.905Z,24.35
2023-02-04T22:05:12.232Z,27.63
2023-02-04T22:07:29.550Z,24.70
2023-02-04T22:09:46.921Z,25.73
2023-02-04T22:12:04.971Z,28.10
2023-02-04T22:14:22.704Z,26.38
2023-02-04T22:16:39.816Z,27.30
2023-02-04T22:18:57.141Z,29.00
2023-02-04T22:21:14.168Z,26.92
2023-02-04T22:23:31.235Z,25.65
2023-02-04T22:25:49.289Z,23.30
2023-02-04T22:28:06.614Z,19.35
2023-02-04T22:30:23.579Z,23.48
2023-02-04T22:32:40.574Z,23.75
2023-02-04T22:34:58.573Z,22.27
2023-02-04T22:37:15.519Z,24.40
2023-02-04T22:39:32.869Z,24.70
2023-02-04T22:41:49.998Z,29.88
2023-02-04T22:44:06.950Z,32.00
2023-02-04T22:46:23.988Z,23.13
2023-02-04T22:48:42.005Z,25.35
2023-02-04T22:50:59.226Z,22.10
2023-02-04T22:53:16.733Z,21.85
2023-02-04T22:55:33.992Z,24.25
2023-02-04T22:57:52.535Z,23.17
2023-02-04T23:00:09.839Z,23.20
2023-02-04T23:02:26.967Z,23.15
2023-02-04T23:04:44.239Z,22.25
2023-02-04T23:07:01.182Z,28.17
2023-02-04T23:09:18.911Z,23.38
2023-02-04T23:11:36.945Z,26.17
2023-02-04T23:13:53.872Z,19.13
2023-02-04T23:16:10.993Z,26.38
2023-02-04T23:18:27.998Z,16.90
2023-02-04T23:20:44.996Z,25.80
2023-02-04T23:23:02.205Z,23.25
2023-02-04T23:25:19.190Z,22.88
2023-02-04T23:27:36.979Z,23.30
2023-02-04T23:29:55.007Z,25.83
2023-02-04T23:32:11.872Z,21.25
2023-02-04T23:34:30.198Z,22.42
2023-02-04T23:36:47.479Z,25.98
2023-02-04T23:39:05.325Z,27.92
2023-02-04T23:41:23.367Z,20.45
2023-02-04T23:43:40.655Z,30.48
2023-02-04T23:45:57.792Z,21.20
2023-02-04T23:48:15.821Z,26.63
2023-02-04T23:50:33.070Z,22.17
2023-02-04T23:52:50.346Z,22.08
2023-02-04T23:55:07.388Z,23.55
2023-02-04T23:57:24.693Z,29.67
2023-02-04T23:59:42.934Z,24.00
